createdAt,value
2022-12-31T00:00:32.626Z,19.37
2022-12-31T00:03:00.152Z,19.45
2022-12-31T00:05:27.334Z,17.70
2022-12-31T00:07:54.349Z,18.83
2022-12-31T00:10:21.900Z,17.90
2022-12-31T00:12:49.023Z,18.60
2022-12-31T00:15:16.175Z,19.30
2022-12-31T00:17:43.498Z,20.02
2022-12-31T00:20:11.049Z,19.02
2022-12-31T00:22:38.113Z,17.60
2022-12-31T00:25:06.113Z,18.00
2022-12-31T00:27:33.216Z,19.65
2022-12-31T00:30:04.932Z,17.35
2022-12-31T00:32:32.585Z,20.70
2022-12-31T00:34:59.565Z,20.58
2022-12-31T00:37:26.570Z,20.15
2022-12-31T00:39:53.850Z,17.85
2022-12-31T00:42:20.881Z,18.73
2022-12-31T00:44:47.879Z,18.08
2022-12-31T00:47:15.379Z,17.90
2022-12-31T00:49:42.575Z,18.58
2022-12-31T00:52:09.775Z,19.02
2022-12-31T00:54:37.207Z,21.58
2022-12-31T00:57:04.232Z,18.67
2022-12-31T00:59:31.271Z,21.58
2022-12-31T01:01:58.655Z,21.80
2022-12-31T01:04:25.820Z,21.35
2022-12-31T01:06:58.907Z,20.20
2022-12-31T01:09:27.311Z,18.95
2022-12-31T01:11:54.373Z,18.25
2022-12-31T01:14:21.620Z,19.40
2022-12-31T01:16:52.192Z,19.40
2022-12-31T01:19:25.595Z,19.33
2022-12-31T01:21:53.278Z,19.60
2022-12-31T01:24:20.895Z,18.73
2022-12-31T01:26:50.901Z,18.60
2022-12-31T01:29:18.572Z,18.40
2022-12-31T01:31:46.880Z,19.17
2022-12-31T01:34:13.977Z,18.25
2022-12-31T01:36:41.440Z,18.80
2022-12-31T01:39:09.680Z,19.58
2022-12-31T01:41:40.009Z,19.10
2022-12-31T01:44:13.385Z,19.37
2022-12-31T01:46:58.291Z,19.83
2022-12-31T01:49:34.761Z,18.48
2022-12-31T01:52:07.745Z,17.83
2022-12-31T01:54:44.476Z,19.27
2022-12-31T01:57:12.543Z,16.92
2022-12-31T01:59:40.818Z,17.58
2022-12-31T02:02:08.023Z,19.15
2022-12-31T02:04:35.658Z,19.20
2022-12-31T02:07:06.931Z,20.12
2022-12-31T02:09:36.629Z,16.80
2022-12-31T02:12:04.959Z,17.77
2022-12-31T02:14:35.188Z,18.15
2022-12-31T02:17:12.811Z,14.80
2022-12-31T02:20:05.499Z,17.12
2022-12-31T02:22:58.587Z,17.73
2022-12-31T02:26:10.978Z,18.27
2022-12-31T02:29:05.594Z,17.30
2022-12-31T02:34:33.648Z,16.45
2022-12-31T02:37:04.916Z,14.70
2022-12-31T02:39:33.305Z,15.98
2022-12-31T02:42:01.923Z,18.40
2022-12-31T02:44:32.598Z,15.82
2022-12-31T02:47:09.035Z,19.15
2022-12-31T02:50:00.919Z,15.45
2022-12-31T02:52:49.766Z,17.83
2022-12-31T02:55:23.705Z,18.55
2022-12-31T02:57:56.741Z,17.45
2022-12-31T03:00:42.832Z,17.58
2022-12-31T03:03:10.938Z,17.05
2022-12-31T03:05:42.948Z,17.02
2022-12-31T03:08:10.065Z,15.82
2022-12-31T03:10:37.204Z,16.00
2022-12-31T03:13:04.489Z,15.18
2022-12-31T03:15:33.309Z,16.70
2022-12-31T03:18:46.761Z,16.65
2022-12-31T03:21:32.805Z,17.92
2022-12-31T03:24:18.743Z,15.77
2022-12-31T03:26:46.051Z,17.70
2022-12-31T03:29:13.076Z,16.15
2022-12-31T03:31:40.159Z,18.40
2022-12-31T03:34:07.495Z,16.45
2022-12-31T03:36:34.763Z,16.60
2022-12-31T03:39:01.770Z,18.50
2022-12-31T03:41:29.088Z,16.87
2022-12-31T03:43:56.071Z,16.87
2022-12-31T03:46:23.381Z,18.02
2022-12-31T03:48:50.879Z,18.33
2022-12-31T03:51:17.977Z,18.48
2022-12-31T03:53:44.965Z,17.50
2022-12-31T03:56:12.285Z,18.27
2022-12-31T03:58:39.312Z,18.23
2022-12-31T04:01:06.506Z,17.95
2022-12-31T04:03:33.863Z,17.62
2022-12-31T04:06:00.926Z,17.05
2022-12-31T04:08:27.969Z,19.10
2022-12-31T04:10:55.281Z,18.35
2022-12-31T04:13:22.320Z,18.40
2022-12-31T04:15:51.044Z,17.92
2022-12-31T04:18:18.444Z,16.73
2022-12-31T04:20:45.456Z,16.40
2022-12-31T04:23:12.468Z,17.20
2022-12-31T04:25:39.796Z,17.48
2022-12-31T04:28:06.840Z,18.00
2022-12-31T04:30:33.894Z,17.33
2022-12-31T04:33:01.212Z,16.83
2022-12-31T04:35:28.871Z,18.48
2022-12-31T04:37:55.849Z,19.15
2022-12-31T04:40:23.160Z,15.70
2022-12-31T04:42:50.154Z,17.67
2022-12-31T04:45:17.296Z,17.25
2022-12-31T04:47:44.594Z,18.73
2022-12-31T04:50:11.628Z,16.60
2022-12-31T04:52:42.694Z,17.75
2022-12-31T04:55:11.359Z,16.35
2022-12-31T04:57:38.777Z,18.25
2022-12-31T05:00:06.403Z,16.58
2022-12-31T05:02:33.882Z,19.95
2022-12-31T05:05:01.014Z,18.08
2022-12-31T05:07:28.020Z,17.75
2022-12-31T05:09:55.310Z,18.77
2022-12-31T05:12:22.361Z,16.55
2022-12-31T05:14:49.393Z,17.98
2022-12-31T05:17:16.835Z,18.98
2022-12-31T05:19:43.852Z,18.62
2022-12-31T05:22:29.213Z,19.45
2022-12-31T05:24:58.286Z,19.67
2022-12-31T05:27:26.343Z,19.05
2022-12-31T05:29:53.364Z,19.90
2022-12-31T05:32:20.665Z,20.62
2022-12-31T05:34:47.710Z,20.77
2022-12-31T05:37:14.743Z,19.55
2022-12-31T05:39:42.050Z,19.48
2022-12-31T05:42:09.066Z,21.87
2022-12-31T05:44:36.055Z,21.65
2022-12-31T05:47:03.792Z,19.75
2022-12-31T05:49:30.864Z,20.55
2022-12-31T05:51:57.909Z,21.40
2022-12-31T05:54:25.251Z,20.20
2022-12-31T05:56:52.549Z,21.17
2022-12-31T05:59:19.677Z,20.17
2022-12-31T06:01:47.471Z,18.98
2022-12-31T06:04:14.765Z,19.30
2022-12-31T06:06:41.823Z,19.58
2022-12-31T06:09:09.160Z,19.92
2022-12-31T06:11:36.768Z,18.75
2022-12-31T06:14:03.780Z,19.05
2022-12-31T06:16:30.784Z,20.15
2022-12-31T06:19:01.598Z,19.73
2022-12-31T06:21:29.986Z,20.50
2022-12-31T06:23:58.859Z,19.73
2022-12-31T06:26:26.896Z,19.27
2022-12-31T06:28:53.933Z,18.87
2022-12-31T06:31:21.410Z,20.17
2022-12-31T06:33:48.484Z,18.80
2022-12-31T06:36:16.600Z,20.58
2022-12-31T06:38:44.288Z,20.45
2022-12-31T06:41:13.892Z,20.88
2022-12-31T06:43:41.704Z,19.90
2022-12-31T06:46:11.823Z,21.10
2022-12-31T06:48:41.874Z,23.45
2022-12-31T06:51:16.997Z,21.25
2022-12-31T06:53:49.295Z,22.23
2022-12-31T06:56:34.059Z,21.98
2022-12-31T06:59:03.068Z,20.27
2022-12-31T07:01:51.295Z,21.40
2022-12-31T07:04:24.499Z,25.17
2022-12-31T07:06:54.809Z,23.27
2022-12-31T07:09:49.017Z,22.80
2022-12-31T07:12:36.377Z,22.25
2022-12-31T07:15:12.320Z,25.30
2022-12-31T07:17:42.803Z,26.17
2022-12-31T07:20:14.928Z,22.20
2022-12-31T07:22:44.173Z,20.15
2022-12-31T07:25:18.888Z,22.90
2022-12-31T07:28:17.631Z,25.88
2022-12-31T07:31:02.902Z,26.12
2022-12-31T07:33:36.448Z,23.65
2022-12-31T07:36:14.034Z,21.87
2022-12-31T07:39:06.621Z,24.20
2022-12-31T07:41:39.662Z,20.50
2022-12-31T07:44:20.614Z,20.85
2022-12-31T07:47:02.022Z,20.08
2022-12-31T07:49:30.659Z,22.73
2022-12-31T07:51:58.117Z,21.08
2022-12-31T07:54:25.281Z,20.65
2022-12-31T07:56:52.716Z,22.15
2022-12-31T07:59:34.704Z,21.45
2022-12-31T08:02:20.645Z,24.08
2022-12-31T08:05:13.059Z,24.05
2022-12-31T08:07:51.999Z,23.12
2022-12-31T08:10:23.897Z,22.05
2022-12-31T08:12:55.759Z,21.65
2022-12-31T08:15:30.295Z,25.27
2022-12-31T08:17:58.208Z,23.10
2022-12-31T08:20:26.948Z,21.65
2022-12-31T08:23:40.520Z,23.12
2022-12-31T08:26:40.163Z,21.75
2022-12-31T08:29:42.568Z,21.83
2022-12-31T08:32:17.324Z,20.83
2022-12-31T08:35:25.249Z,22.13
2022-12-31T08:38:46.982Z,21.45
2022-12-31T08:41:21.017Z,25.02
2022-12-31T08:46:35.954Z,23.27
2022-12-31T08:49:03.793Z,22.65
2022-12-31T08:51:31.370Z,22.35
2022-12-31T08:53:58.675Z,21.27
2022-12-31T08:56:40.189Z,22.30
2022-12-31T08:59:47.731Z,21.98
2022-12-31T09:02:33.859Z,20.65
2022-12-31T09:05:27.208Z,20.50
2022-12-31T09:08:22.943Z,22.00
2022-12-31T09:10:56.027Z,23.60
2022-12-31T09:13:38.722Z,22.47
2022-12-31T09:16:16.157Z,23.25
2022-12-31T09:18:44.081Z,22.55
2022-12-31T09:21:13.891Z,23.02
2022-12-31T09:23:41.579Z,23.87
2022-12-31T09:26:33.772Z,22.58
2022-12-31T09:29:19.062Z,22.80
2022-12-31T09:31:53.465Z,25.20
2022-12-31T09:34:35.475Z,27.08
2022-12-31T09:37:11.101Z,26.45
2022-12-31T09:39:44.863Z,24.83
2022-12-31T09:42:49.213Z,25.60
2022-12-31T09:45:34.377Z,25.08
2022-12-31T09:48:04.698Z,28.10
2022-12-31T09:50:59.643Z,27.37
2022-12-31T09:53:36.064Z,26.87
2022-12-31T09:56:11.725Z,26.60
2022-12-31T09:59:05.254Z,26.25
2022-12-31T10:02:13.618Z,25.88
2022-12-31T10:05:14.765Z,26.35
2022-12-31T10:07:50.368Z,31.75
2022-12-31T10:10:34.490Z,32.08
2022-12-31T10:13:20.200Z,32.10
2022-12-31T10:15:53.794Z,31.65
2022-12-31T10:18:57.554Z,32.80
2022-12-31T10:21:43.684Z,32.30
2022-12-31T10:24:26.014Z,31.50
2022-12-31T10:27:14.113Z,31.15
2022-12-31T10:29:55.033Z,30.98
2022-12-31T10:32:40.828Z,27.90
2022-12-31T10:35:43.914Z,25.75
2022-12-31T10:38:14.369Z,23.35
2022-12-31T10:41:07.813Z,25.17
2022-12-31T10:43:50.192Z,26.20
2022-12-31T10:46:39.027Z,26.75
2022-12-31T10:49:25.292Z,26.37
2022-12-31T10:52:23.986Z,26.10
2022-12-31T10:55:13.075Z,31.42
2022-12-31T10:58:10.345Z,28.10
2022-12-31T11:00:49.687Z,25.88
2022-12-31T11:03:47.129Z,25.05
2022-12-31T11:06:32.092Z,24.05
2022-12-31T11:12:00.080Z,21.55
2022-12-31T11:15:04.869Z,23.17
2022-12-31T11:17:54.637Z,23.95
2022-12-31T11:21:06.913Z,22.90
2022-12-31T11:23:51.273Z,25.98
2022-12-31T11:26:37.147Z,23.38
2022-12-31T11:30:02.984Z,24.87
2022-12-31T11:33:00.997Z,24.23
2022-12-31T11:35:41.818Z,28.10
2022-12-31T11:38:21.220Z,23.20
2022-12-31T11:41:07.774Z,24.90
2022-12-31T11:43:52.406Z,25.65
2022-12-31T11:47:01.957Z,26.52
2022-12-31T11:49:39.896Z,27.40
2022-12-31T11:52:26.264Z,26.02
2022-12-31T11:55:08.570Z,27.13
2022-12-31T11:57:38.774Z,26.15
2022-12-31T12:00:09.530Z,26.65
2022-12-31T12:02:45.709Z,25.17
2022-12-31T12:05:16.824Z,23.35
2022-12-31T12:07:44.438Z,27.02
2022-12-31T12:10:37.980Z,25.50
2022-12-31T12:13:14.309Z,25.00
2022-12-31T12:15:45.803Z,24.52
2022-12-31T12:18:50.113Z,25.77
2022-12-31T12:21:25.179Z,23.55
2022-12-31T12:24:02.989Z,23.90
2022-12-31T12:26:35.364Z,27.25
2022-12-31T12:29:18.975Z,23.92
2022-12-31T12:32:02.912Z,26.25
2022-12-31T12:34:45.874Z,27.20
2022-12-31T12:37:22.056Z,21.67
2022-12-31T12:40:00.895Z,19.80
2022-12-31T12:42:29.137Z,22.17
2022-12-31T12:45:14.083Z,22.60
2022-12-31T12:50:18.030Z,17.85
2022-12-31T12:52:59.484Z,18.70
2022-12-31T12:55:42.144Z,19.20
2022-12-31T12:58:32.378Z,18.05
2022-12-31T13:01:02.617Z,19.75
2022-12-31T13:04:32.404Z,19.40
2022-12-31T13:07:06.197Z,18.08
2022-12-31T13:09:36.138Z,17.62
2022-12-31T13:12:08.051Z,20.77
2022-12-31T13:14:50.085Z,22.40
2022-12-31T13:17:29.498Z,21.00
2022-12-31T13:20:13.173Z,21.37
2022-12-31T13:22:58.215Z,20.25
2022-12-31T13:25:46.602Z,21.92
2022-12-31T13:28:16.427Z,19.90
2022-12-31T13:30:48.914Z,20.15
2022-12-31T13:33:24.293Z,19.90
2022-12-31T13:35:57.878Z,19.87
2022-12-31T13:38:36.931Z,19.23
2022-12-31T13:41:11.880Z,20.17
2022-12-31T13:44:10.285Z,21.33
2022-12-31T13:46:52.856Z,19.65
2022-12-31T13:49:26.729Z,18.80
2022-12-31T13:52:07.160Z,20.12
2022-12-31T13:54:54.552Z,22.42
2022-12-31T13:57:34.622Z,20.12
2022-12-31T14:00:06.651Z,23.87
2022-12-31T14:02:46.108Z,28.85
2022-12-31T14:05:21.517Z,23.42
2022-12-31T14:08:00.429Z,24.77
2022-12-31T14:10:48.895Z,24.23
2022-12-31T14:13:34.574Z,22.80
2022-12-31T14:16:11.670Z,23.40
2022-12-31T14:18:57.366Z,24.50
2022-12-31T14:21:37.507Z,23.90
2022-12-31T14:24:15.939Z,24.23
2022-12-31T14:26:48.662Z,30.10
2022-12-31T14:29:33.952Z,31.42
2022-12-31T14:32:07.122Z,28.35
2022-12-31T14:35:15.555Z,30.62
2022-12-31T14:37:58.682Z,30.83
2022-12-31T14:40:47.382Z,27.40
2022-12-31T14:43:23.821Z,27.45
2022-12-31T14:46:02.113Z,34.35
2022-12-31T14:48:46.160Z,36.95
2022-12-31T14:51:14.182Z,34.80
2022-12-31T14:53:52.628Z,34.45
2022-12-31T14:56:43.093Z,32.58
2022-12-31T14:59:34.415Z,33.03
2022-12-31T15:02:02.989Z,27.30
2022-12-31T15:04:45.292Z,32.10
2022-12-31T15:07:42.550Z,31.17
2022-12-31T15:10:51.647Z,27.98
2022-12-31T15:13:34.675Z,27.55
2022-12-31T15:16:30.132Z,27.27
2022-12-31T15:19:03.086Z,28.15
2022-12-31T15:21:50.640Z,26.33
2022-12-31T15:24:17.660Z,26.73
2022-12-31T15:26:52.006Z,29.37
2022-12-31T15:29:30.357Z,27.83
2022-12-31T15:32:00.511Z,27.23
2022-12-31T15:34:29.647Z,28.08
2022-12-31T15:37:00.180Z,27.30
2022-12-31T15:39:39.177Z,27.10
2022-12-31T15:42:49.226Z,27.05
2022-12-31T15:45:27.529Z,27.55
2022-12-31T15:48:02.021Z,27.35
2022-12-31T15:50:30.199Z,27.33
2022-12-31T15:53:00.876Z,26.52
2022-12-31T15:55:46.415Z,31.58
2022-12-31T15:58:23.806Z,30.12
2022-12-31T16:01:17.609Z,32.28
2022-12-31T16:03:51.571Z,33.88
2022-12-31T16:06:18.793Z,32.78
2022-12-31T16:08:48.605Z,33.03
2022-12-31T16:11:17.116Z,32.92
2022-12-31T16:13:50.329Z,36.53
2022-12-31T16:16:31.860Z,36.22
2022-12-31T16:19:00.635Z,40.65
2022-12-31T16:21:34.556Z,35.50
2022-12-31T16:24:27.692Z,33.58
2022-12-31T16:26:59.655Z,37.17
2022-12-31T16:29:27.029Z,39.85
2022-12-31T16:31:54.759Z,34.85
2022-12-31T16:34:24.939Z,35.65
2022-12-31T16:37:19.667Z,33.60
2022-12-31T16:39:57.855Z,32.67
2022-12-31T16:42:27.889Z,35.63
2022-12-31T16:44:57.189Z,38.38
2022-12-31T16:47:35.020Z,37.72
2022-12-31T16:50:12.916Z,41.03
2022-12-31T16:52:43.226Z,38.05
2022-12-31T16:55:18.416Z,42.05
2022-12-31T16:57:55.915Z,40.65
2022-12-31T17:00:25.142Z,40.78
2022-12-31T17:03:27.407Z,40.95
2022-12-31T17:06:13.673Z,37.55
2022-12-31T17:08:56.036Z,45.33
2022-12-31T17:11:31.476Z,43.25
2022-12-31T17:14:07.812Z,41.80
2022-12-31T17:16:38.501Z,37.13
2022-12-31T17:19:06.118Z,32.85
2022-12-31T17:21:33.639Z,34.25
2022-12-31T17:24:04.546Z,30.35
2022-12-31T17:26:37.816Z,28.40
2022-12-31T17:29:06.098Z,28.50
2022-12-31T17:31:33.555Z,25.55
2022-12-31T17:34:12.773Z,25.58
2022-12-31T17:36:51.324Z,25.33
2022-12-31T17:39:20.805Z,25.65
2022-12-31T17:41:50.665Z,32.05
2022-12-31T17:44:21.296Z,31.55
2022-12-31T17:46:50.250Z,31.12
2022-12-31T17:49:21.829Z,28.73
2022-12-31T17:51:49.217Z,26.58
2022-12-31T17:54:17.211Z,24.87
2022-12-31T17:56:45.479Z,24.92
2022-12-31T17:59:18.236Z,23.65
2022-12-31T18:01:45.478Z,26.37
2022-12-31T18:04:14.207Z,24.63
2022-12-31T18:06:42.118Z,24.50
2022-12-31T18:09:09.714Z,24.15
2022-12-31T18:11:38.521Z,25.30
2022-12-31T18:14:07.076Z,25.52
2022-12-31T18:16:34.407Z,25.67
2022-12-31T18:19:02.147Z,26.60
2022-12-31T18:21:34.529Z,24.45
2022-12-31T18:26:32.594Z,24.83
2022-12-31T18:29:02.599Z,23.05
2022-12-31T18:31:31.059Z,24.80
2022-12-31T18:33:59.456Z,23.73
2022-12-31T18:36:28.415Z,23.60
2022-12-31T18:38:55.891Z,24.70
2022-12-31T18:41:27.624Z,27.37
2022-12-31T18:43:55.290Z,26.87
2022-12-31T18:46:24.616Z,24.75
2022-12-31T18:48:51.718Z,25.15
2022-12-31T18:51:26.475Z,29.87
2022-12-31T18:54:00.575Z,26.08
2022-12-31T18:56:28.289Z,31.80
2022-12-31T18:58:55.325Z,32.60
2022-12-31T19:01:22.975Z,30.75
2022-12-31T19:03:50.036Z,31.08
2022-12-31T19:06:18.353Z,34.45
2022-12-31T19:08:45.693Z,33.95
2022-12-31T19:11:14.142Z,34.47
2022-12-31T19:13:41.226Z,35.13
2022-12-31T19:16:09.703Z,33.88
2022-12-31T19:18:37.026Z,37.90
2022-12-31T19:21:04.953Z,71.28
2022-12-31T19:23:32.272Z,50.05
2022-12-31T19:25:59.349Z,48.17
2022-12-31T19:28:27.567Z,49.83
2022-12-31T19:30:55.007Z,46.13
2022-12-31T19:33:22.132Z,51.40
2022-12-31T19:35:49.358Z,56.97
2022-12-31T19:38:23.774Z,55.10
2022-12-31T19:40:51.990Z,57.65
2022-12-31T19:43:21.892Z,56.58
2022-12-31T19:45:50.175Z,57.60
2022-12-31T19:48:28.723Z,55.60
2022-12-31T19:50:59.969Z,53.28
2022-12-31T19:53:28.067Z,49.25
2022-12-31T19:55:55.119Z,47.38
2022-12-31T19:58:25.633Z,51.08
2022-12-31T20:01:01.059Z,52.42
2022-12-31T20:03:30.009Z,53.05
2022-12-31T20:06:08.786Z,51.25
2022-12-31T20:08:37.961Z,52.67
2022-12-31T20:11:17.422Z,52.47
2022-12-31T20:13:45.850Z,51.63
2022-12-31T20:16:15.582Z,49.75
2022-12-31T20:18:44.039Z,47.40
2022-12-31T20:21:20.296Z,46.08
2022-12-31T20:23:49.314Z,46.55
2022-12-31T20:26:18.147Z,44.67
2022-12-31T20:28:45.762Z,45.55
2022-12-31T20:31:19.030Z,43.83
2022-12-31T20:33:46.632Z,43.03
2022-12-31T20:36:15.778Z,45.30
2022-12-31T20:38:43.637Z,44.85
2022-12-31T20:41:20.363Z,42.40
2022-12-31T20:43:47.794Z,45.63
2022-12-31T20:46:23.668Z,43.10
2022-12-31T20:48:53.061Z,48.75
2022-12-31T20:51:21.516Z,46.72
2022-12-31T20:53:57.666Z,48.38
2022-12-31T20:56:26.578Z,44.35
2022-12-31T20:58:53.662Z,46.95
2022-12-31T21:01:21.415Z,46.55
2022-12-31T21:04:06.341Z,46.17
2022-12-31T21:06:35.457Z,41.15
2022-12-31T21:09:05.754Z,38.20
2022-12-31T21:11:51.570Z,38.78
2022-12-31T21:14:19.268Z,38.65
2022-12-31T21:16:46.359Z,37.17
2022-12-31T21:19:13.415Z,37.85
2022-12-31T21:21:40.693Z,36.35
2022-12-31T21:24:08.203Z,39.00
2022-12-31T21:26:35.433Z,36.53
2022-12-31T21:29:03.168Z,37.60
2022-12-31T21:31:30.234Z,35.63
2022-12-31T21:33:57.420Z,35.38
2022-12-31T21:36:27.518Z,33.70
2022-12-31T21:38:54.516Z,34.28
2022-12-31T21:41:40.159Z,32.67
2022-12-31T21:44:07.653Z,34.75
2022-12-31T21:46:35.015Z,30.95
2022-12-31T21:49:02.329Z,30.98
2022-12-31T21:51:30.240Z,31.58
2022-12-31T21:53:58.026Z,30.17
2022-12-31T21:56:27.969Z,28.35
2022-12-31T21:59:15.606Z,29.58
2022-12-31T22:02:02.130Z,29.52
2022-12-31T22:07:18.638Z,28.95
2022-12-31T22:09:46.163Z,31.02
2022-12-31T22:12:13.230Z,29.33
2022-12-31T22:15:15.449Z,31.02
2022-12-31T22:17:28.873Z,30.98
2022-12-31T22:22:46.260Z,32.85
2022-12-31T22:25:16.363Z,35.47
2022-12-31T22:27:53.043Z,34.95
2022-12-31T22:30:31.586Z,39.30
2022-12-31T22:32:59.005Z,40.00
2022-12-31T22:35:26.112Z,37.92
2022-12-31T22:37:59.137Z,39.65
2022-12-31T22:40:28.703Z,40.28
2022-12-31T22:42:56.320Z,37.95
2022-12-31T22:45:23.563Z,37.70
2022-12-31T22:47:50.988Z,36.75
2022-12-31T22:50:18.475Z,41.37
2022-12-31T22:52:46.715Z,39.22
2022-12-31T22:55:15.025Z,41.03
2022-12-31T22:57:43.533Z,41.80
2022-12-31T23:00:13.209Z,43.35
2022-12-31T23:02:42.276Z,44.17
2022-12-31T23:05:15.361Z,47.20
2022-12-31T23:07:43.648Z,46.08
2022-12-31T23:10:29.899Z,46.30
2022-12-31T23:12:58.628Z,44.92
2022-12-31T23:15:44.721Z,43.50
2022-12-31T23:18:30.545Z,51.03
2022-12-31T23:21:16.451Z,57.15
2022-12-31T23:23:43.626Z,57.72
2022-12-31T23:26:11.142Z,63.70
2022-12-31T23:28:38.285Z,65.30
2022-12-31T23:31:06.654Z,63.33
2022-12-31T23:33:34.091Z,69.50
2022-12-31T23:36:06.297Z,71.43
2022-12-31T23:38:33.859Z,69.28
2022-12-31T23:41:01.073Z,66.05
2022-12-31T23:43:29.607Z,77.87
2022-12-31T23:45:57.082Z,79.97
2022-12-31T23:48:25.056Z,79.82
2022-12-31T23:50:54.285Z,80.43
2022-12-31T23:53:24.946Z,80.35
2022-12-31T23:55:53.324Z,75.35
2022-12-31T23:58:21.399Z,80.12
